sensor_id;sensor_type;location;lat;lon;timestamp;P1;P2;P0
26720;PMS1003;15950;51.112;6.966;2022-12-18T00:01:57;009;006;
26720;PMS1003;15950;51.112;6.966;2022-12-18T00:04:57;007;005;
26720;PMS1003;15950;51.112;6.966;2022-12-18T00:07:57;010;007;
26720;PMS1003;15950;51.112;6.966;2022-12-18T00:11:03;008;006;
26720;PMS1003;15950;51.112;6.966;2022-12-18T00:14:02;009;006;
26720;PMS1003;15950;51.112;6.966;2022-12-18T00:16:57;007;005;
26720;PMS1003;15950;51.112;6.966;2022-12-18T00:20:00;006;004;
26720;PMS1003;15950;51.112;6.966;2022-12-18T00:22:59;007;005;
26720;PMS1003;15950;51.112;6.966;2022-12-18T00:26:03;009;007;
26720;PMS1003;15950;51.112;6.966;2022-12-18T00:28:58;005;003;
26720;PMS1003;15950;51.112;6.966;2022-12-18T00:31:57;006;004;
26720;PMS1003;15950;51.112;6.966;2022-12-18T00:35:00;007;005;
26720;PMS1003;15950;51.112;6.966;2022-12-18T00:38:00;010;007;
26720;PMS1003;15950;51.112;6.966;2022-12-18T00:41:00;009;007;
26720;PMS1003;15950;51.112;6.966;2022-12-18T00:44:03;007;005;
26720;PMS1003;15950;51.112;6.966;2022-12-18T00:46:58;006;004;
26720;PMS1003;15950;51.112;6.966;2022-12-18T00:49:57;007;005;
26720;PMS1003;15950;51.112;6.966;2022-12-18T00:52:57;010;007;
26720;PMS1003;15950;51.112;6.966;2022-12-18T00:55:57;009;006;
26720;PMS1003;15950;51.112;6.966;2022-12-18T00:58:57;010;009;
26720;PMS1003;15950;51.112;6.966;2022-12-18T01:01:57;007;005;
26720;PMS1003;15950;51.112;6.966;2022-12-18T01:04:57;006;005;
26720;PMS1003;15950;51.112;6.966;2022-12-18T01:07:57;007;005;
26720;PMS1003;15950;51.112;6.966;2022-12-18T01:10:57;006;004;
26720;PMS1003;15950;51.112;6.966;2022-12-18T01:14:00;007;005;
26720;PMS1003;15950;51.112;6.966;2022-12-18T01:16:57;009;006;
26720;PMS1003;15950;51.112;6.966;2022-12-18T01:19:57;006;004;
26720;PMS1003;15950;51.112;6.966;2022-12-18T01:22:57;007;005;
26720;PMS1003;15950;51.112;6.966;2022-12-18T01:25:57;009;006;
26720;PMS1003;15950;51.112;6.966;2022-12-18T01:28:57;005;003;
26720;PMS1003;15950;51.112;6.966;2022-12-18T01:31:57;009;006;
26720;PMS1003;15950;51.112;6.966;2022-12-18T01:34:57;008;006;
26720;PMS1003;15950;51.112;6.966;2022-12-18T01:37:57;007;005;
26720;PMS1003;15950;51.112;6.966;2022-12-18T01:40:58;005;003;
26720;PMS1003;15950;51.112;6.966;2022-12-18T01:43:57;006;004;
26720;PMS1003;15950;51.112;6.966;2022-12-18T01:46:57;007;005;
26720;PMS1003;15950;51.112;6.966;2022-12-18T01:49:57;009;006;
26720;PMS1003;15950;51.112;6.966;2022-12-18T01:55:57;003;002;
26720;PMS1003;15950;51.112;6.966;2022-12-18T01:59:02;003;002;
26720;PMS1003;15950;51.112;6.966;2022-12-18T02:01:57;009;008;
26720;PMS1003;15950;51.112;6.966;2022-12-18T02:04:57;006;004;
26720;PMS1003;15950;51.112;6.966;2022-12-18T02:17:07;003;002;
26720;PMS1003;15950;51.112;6.966;2022-12-18T02:29:05;003;002;
26720;PMS1003;15950;51.112;6.966;2022-12-18T02:31:57;006;004;
26720;PMS1003;15950;51.112;6.966;2022-12-18T02:34:57;005;003;
26720;PMS1003;15950;51.112;6.966;2022-12-18T02:37:57;005;004;
26720;PMS1003;15950;51.112;6.966;2022-12-18T02:40:57;008;006;
26720;PMS1003;15950;51.112;6.966;2022-12-18T02:43:59;009;006;
26720;PMS1003;15950;51.112;6.966;2022-12-18T02:46:57;007;005;
26720;PMS1003;15950;51.112;6.966;2022-12-18T03:01:58;005;004;
26720;PMS1003;15950;51.112;6.966;2022-12-18T03:05:01;005;003;
26720;PMS1003;15950;51.112;6.966;2022-12-18T03:08:05;000;000;
26720;PMS1003;15950;51.112;6.966;2022-12-18T03:10:58;004;004;
26720;PMS1003;15950;51.112;6.966;2022-12-18T03:13:57;004;004;
26720;PMS1003;15950;51.112;6.966;2022-12-18T03:16:59;003;002;
26720;PMS1003;15950;51.112;6.966;2022-12-18T03:19:58;007;007;
26720;PMS1003;15950;51.112;6.966;2022-12-18T03:22:59;005;003;
26720;PMS1003;15950;51.112;6.966;2022-12-18T03:25:57;006;004;
26720;PMS1003;15950;51.112;6.966;2022-12-18T03:28:59;002;001;
26720;PMS1003;15950;51.112;6.966;2022-12-18T03:31:59;004;004;
26720;PMS1003;15950;51.112;6.966;2022-12-18T03:34:58;003;002;
26720;PMS1003;15950;51.112;6.966;2022-12-18T03:37:57;003;002;
26720;PMS1003;15950;51.112;6.966;2022-12-18T03:53:02;003;002;
26720;PMS1003;15950;51.112;6.966;2022-12-18T03:55:57;005;003;
26720;PMS1003;15950;51.112;6.966;2022-12-18T03:58:57;002;001;
26720;PMS1003;15950;51.112;6.966;2022-12-18T04:01:57;003;002;
26720;PMS1003;15950;51.112;6.966;2022-12-18T04:04:57;006;004;
26720;PMS1003;15950;51.112;6.966;2022-12-18T04:07:57;002;001;
26720;PMS1003;15950;51.112;6.966;2022-12-18T04:10:57;002;001;
26720;PMS1003;15950;51.112;6.966;2022-12-18T04:13:57;007;005;
26720;PMS1003;15950;51.112;6.966;2022-12-18T04:16:57;003;002;
26720;PMS1003;15950;51.112;6.966;2022-12-18T04:19:57;005;003;
26720;PMS1003;15950;51.112;6.966;2022-12-18T04:22:57;003;002;
26720;PMS1003;15950;51.112;6.966;2022-12-18T04:25:57;005;004;
26720;PMS1003;15950;51.112;6.966;2022-12-18T04:28:57;005;003;
26720;PMS1003;15950;51.112;6.966;2022-12-18T04:31:57;003;002;
26720;PMS1003;15950;51.112;6.966;2022-12-18T04:34:57;004;003;
26720;PMS1003;15950;51.112;6.966;2022-12-18T04:37:57;006;004;
26720;PMS1003;15950;51.112;6.966;2022-12-18T04:40:57;005;004;
26720;PMS1003;15950;51.112;6.966;2022-12-18T04:43:57;005;003;
26720;PMS1003;15950;51.112;6.966;2022-12-18T04:46:57;006;004;
26720;PMS1003;15950;51.112;6.966;2022-12-18T04:49:57;007;005;
26720;PMS1003;15950;51.112;6.966;2022-12-18T04:52:57;005;003;
26720;PMS1003;15950;51.112;6.966;2022-12-18T04:58:57;003;003;
26720;PMS1003;15950;51.112;6.966;2022-12-18T05:01:57;009;007;
26720;PMS1003;15950;51.112;6.966;2022-12-18T05:04:57;003;002;
26720;PMS1003;15950;51.112;6.966;2022-12-18T05:07:57;006;004;
26720;PMS1003;15950;51.112;6.966;2022-12-18T05:11:01;006;004;
26720;PMS1003;15950;51.112;6.966;2022-12-18T05:13:57;010;009;
26720;PMS1003;15950;51.112;6.966;2022-12-18T05:16:57;006;004;
26720;PMS1003;15950;51.112;6.966;2022-12-18T05:19:57;005;004;
26720;PMS1003;15950;51.112;6.966;2022-12-18T05:22:57;006;004;
26720;PMS1003;15950;51.112;6.966;2022-12-18T05:25:58;005;003;
26720;PMS1003;15950;51.112;6.966;2022-12-18T05:28:57;012;008;
26720;PMS1003;15950;51.112;6.966;2022-12-18T05:31:57;009;006;
26720;PMS1003;15950;51.112;6.966;2022-12-18T05:34:57;010;007;
26720;PMS1003;15950;51.112;6.966;2022-12-18T05:37:57;012;011;
26720;PMS1003;15950;51.112;6.966;2022-12-18T05:40:57;011;009;
26720;PMS1003;15950;51.112;6.966;2022-12-18T05:43:57;006;004;
26720;PMS1003;15950;51.112;6.966;2022-12-18T05:46:57;004;003;
26720;PMS1003;15950;51.112;6.966;2022-12-18T05:49:57;013;009;
26720;PMS1003;15950;51.112;6.966;2022-12-18T05:52:57;006;004;
26720;PMS1003;15950;51.112;6.966;2022-12-18T05:55:59;007;005;
26720;PMS1003;15950;51.112;6.966;2022-12-18T05:58:57;011;008;
26720;PMS1003;15950;51.112;6.966;2022-12-18T06:01:57;008;007;
26720;PMS1003;15950;51.112;6.966;2022-12-18T06:04:57;008;006;
26720;PMS1003;15950;51.112;6.966;2022-12-18T06:07:57;009;007;
26720;PMS1003;15950;51.112;6.966;2022-12-18T06:10:57;007;005;
26720;PMS1003;15950;51.112;6.966;2022-12-18T06:13:57;007;005;
26720;PMS1003;15950;51.112;6.966;2022-12-18T06:16:57;007;005;
26720;PMS1003;15950;51.112;6.966;2022-12-18T06:19:57;006;004;
26720;PMS1003;15950;51.112;6.966;2022-12-18T06:22:57;007;005;
26720;PMS1003;15950;51.112;6.966;2022-12-18T06:25:57;013;009;
26720;PMS1003;15950;51.112;6.966;2022-12-18T06:28:57;006;005;
26720;PMS1003;15950;51.112;6.966;2022-12-18T06:31:57;006;004;
26720;PMS1003;15950;51.112;6.966;2022-12-18T06:34:57;005;004;
26720;PMS1003;15950;51.112;6.966;2022-12-18T06:37:57;007;005;
26720;PMS1003;15950;51.112;6.966;2022-12-18T06:40:57;009;006;
26720;PMS1003;15950;51.112;6.966;2022-12-18T06:43:57;012;008;
26720;PMS1003;15950;51.112;6.966;2022-12-18T06:46:57;006;004;
26720;PMS1003;15950;51.112;6.966;2022-12-18T06:49:57;010;007;
26720;PMS1003;15950;51.112;6.966;2022-12-18T06:52:57;007;005;
26720;PMS1003;15950;51.112;6.966;2022-12-18T06:56:01;007;005;
26720;PMS1003;15950;51.112;6.966;2022-12-18T06:58:57;006;004;
26720;PMS1003;15950;51.112;6.966;2022-12-18T07:01:57;006;004;
26720;PMS1003;15950;51.112;6.966;2022-12-18T07:04:57;007;005;
26720;PMS1003;15950;51.112;6.966;2022-12-18T07:07:57;009;006;
26720;PMS1003;15950;51.112;6.966;2022-12-18T07:10:57;010;007;
26720;PMS1003;15950;51.112;6.966;2022-12-18T07:13:58;006;005;
26720;PMS1003;15950;51.112;6.966;2022-12-18T07:16:57;007;005;
26720;PMS1003;15950;51.112;6.966;2022-12-18T07:19:57;003;002;
26720;PMS1003;15950;51.112;6.966;2022-12-18T07:22:57;005;004;
26720;PMS1003;15950;51.112;6.966;2022-12-18T07:26:00;010;007;
26720;PMS1003;15950;51.112;6.966;2022-12-18T07:28:57;007;005;
26720;PMS1003;15950;51.112;6.966;2022-12-18T07:31:57;013;009;
26720;PMS1003;15950;51.112;6.966;2022-12-18T07:34:57;007;005;
26720;PMS1003;15950;51.112;6.966;2022-12-18T07:37:57;006;004;
26720;PMS1003;15950;51.112;6.966;2022-12-18T07:43:57;013;010;
26720;PMS1003;15950;51.112;6.966;2022-12-18T07:46:57;005;003;
26720;PMS1003;15950;51.112;6.966;2022-12-18T07:49:57;011;008;
26720;PMS1003;15950;51.112;6.966;2022-12-18T07:52:57;014;010;
26720;PMS1003;15950;51.112;6.966;2022-12-18T07:55:57;006;004;
26720;PMS1003;15950;51.112;6.966;2022-12-18T07:58:57;010;007;
26720;PMS1003;15950;51.112;6.966;2022-12-18T08:01:57;005;003;
26720;PMS1003;15950;51.112;6.966;2022-12-18T08:04:57;017;012;
26720;PMS1003;15950;51.112;6.966;2022-12-18T08:07:57;008;006;
26720;PMS1003;15950;51.112;6.966;2022-12-18T08:10:57;009;006;
26720;PMS1003;15950;51.112;6.966;2022-12-18T08:13:57;007;005;
26720;PMS1003;15950;51.112;6.966;2022-12-18T08:16:57;012;008;
26720;PMS1003;15950;51.112;6.966;2022-12-18T08:19:57;011;008;
26720;PMS1003;15950;51.112;6.966;2022-12-18T08:22:57;014;012;
26720;PMS1003;15950;51.112;6.966;2022-12-18T08:25:57;006;004;
26720;PMS1003;15950;51.112;6.966;2022-12-18T08:28:58;007;005;
26720;PMS1003;15950;51.112;6.966;2022-12-18T08:31:57;010;007;
26720;PMS1003;15950;51.112;6.966;2022-12-18T08:34:57;016;011;
26720;PMS1003;15950;51.112;6.966;2022-12-18T08:37:57;010;007;
26720;PMS1003;15950;51.112;6.966;2022-12-18T08:43:57;017;013;
26720;PMS1003;15950;51.112;6.966;2022-12-18T08:46:57;008;006;
26720;PMS1003;15950;51.112;6.966;2022-12-18T08:49:57;010;007;
26720;PMS1003;15950;51.112;6.966;2022-12-18T08:52:57;010;007;
26720;PMS1003;15950;51.112;6.966;2022-12-18T08:55:57;015;011;
26720;PMS1003;15950;51.112;6.966;2022-12-18T08:58:57;009;006;
26720;PMS1003;15950;51.112;6.966;2022-12-18T09:01:57;006;004;
26720;PMS1003;15950;51.112;6.966;2022-12-18T09:04:57;013;009;
26720;PMS1003;15950;51.112;6.966;2022-12-18T09:07:57;012;008;
26720;PMS1003;15950;51.112;6.966;2022-12-18T09:10:57;009;006;
26720;PMS1003;15950;51.112;6.966;2022-12-18T09:13:57;012;008;
26720;PMS1003;15950;51.112;6.966;2022-12-18T09:16:57;006;004;
26720;PMS1003;15950;51.112;6.966;2022-12-18T09:19:57;008;007;
26720;PMS1003;15950;51.112;6.966;2022-12-18T09:22:57;010;007;
26720;PMS1003;15950;51.112;6.966;2022-12-18T09:26:00;016;012;
26720;PMS1003;15950;51.112;6.966;2022-12-18T09:28:57;006;004;
26720;PMS1003;15950;51.112;6.966;2022-12-18T09:31:57;007;005;
26720;PMS1003;15950;51.112;6.966;2022-12-18T09:34:57;005;003;
26720;PMS1003;15950;51.112;6.966;2022-12-18T09:37:57;009;006;
26720;PMS1003;15950;51.112;6.966;2022-12-18T09:43:58;010;008;
26720;PMS1003;15950;51.112;6.966;2022-12-18T09:50:39;007;005;
26720;PMS1003;15950;51.112;6.966;2022-12-18T09:52:57;003;003;
26720;PMS1003;15950;51.112;6.966;2022-12-18T09:55:57;010;009;
26720;PMS1003;15950;51.112;6.966;2022-12-18T09:58:58;007;005;
26720;PMS1003;15950;51.112;6.966;2022-12-18T10:01:57;007;005;
26720;PMS1003;15950;51.112;6.966;2022-12-18T10:10:58;003;002;
26720;PMS1003;15950;51.112;6.966;2022-12-18T10:13:58;004;003;
26720;PMS1003;15950;51.112;6.966;2022-12-18T10:28:57;000;000;
26720;PMS1003;15950;51.112;6.966;2022-12-18T10:31:57;012;010;
26720;PMS1003;15950;51.112;6.966;2022-12-18T10:34:57;006;005;
26720;PMS1003;15950;51.112;6.966;2022-12-18T10:47:02;006;005;
26720;PMS1003;15950;51.112;6.966;2022-12-18T10:49:57;002;001;
26720;PMS1003;15950;51.112;6.966;2022-12-18T10:52:58;004;003;
26720;PMS1003;15950;51.112;6.966;2022-12-18T10:56:00;013;009;
26720;PMS1003;15950;51.112;6.966;2022-12-18T10:59:01;007;006;
26720;PMS1003;15950;51.112;6.966;2022-12-18T11:01:57;011;010;
26720;PMS1003;15950;51.112;6.966;2022-12-18T11:04:57;007;006;
26720;PMS1003;15950;51.112;6.966;2022-12-18T11:07:57;009;007;
26720;PMS1003;15950;51.112;6.966;2022-12-18T11:10:57;009;006;
26720;PMS1003;15950;51.112;6.966;2022-12-18T11:16:57;012;009;
26720;PMS1003;15950;51.112;6.966;2022-12-18T11:19:57;006;006;
26720;PMS1003;15950;51.112;6.966;2022-12-18T11:22:58;005;003;
26720;PMS1003;15950;51.112;6.966;2022-12-18T11:25:58;007;005;
26720;PMS1003;15950;51.112;6.966;2022-12-18T11:37:58;009;006;
26720;PMS1003;15950;51.112;6.966;2022-12-18T11:43:58;007;005;
26720;PMS1003;15950;51.112;6.966;2022-12-18T11:49:59;017;012;
26720;PMS1003;15950;51.112;6.966;2022-12-18T11:52:57;011;009;
26720;PMS1003;15950;51.112;6.966;2022-12-18T12:05:18;009;006;
26720;PMS1003;15950;51.112;6.966;2022-12-18T12:29:01;007;005;
26720;PMS1003;15950;51.112;6.966;2022-12-18T12:38:03;016;014;
26720;PMS1003;15950;51.112;6.966;2022-12-18T12:40:58;013;009;
26720;PMS1003;15950;51.112;6.966;2022-12-18T12:43:57;012;008;
26720;PMS1003;15950;51.112;6.966;2022-12-18T12:46:58;014;010;
26720;PMS1003;15950;51.112;6.966;2022-12-18T12:49:57;012;008;
26720;PMS1003;15950;51.112;6.966;2022-12-18T12:52:57;009;006;
26720;PMS1003;15950;51.112;6.966;2022-12-18T12:55:57;009;006;
26720;PMS1003;15950;51.112;6.966;2022-12-18T13:10:57;016;011;
26720;PMS1003;15950;51.112;6.966;2022-12-18T13:13:56;014;010;
26720;PMS1003;15950;51.112;6.966;2022-12-18T13:22:56;013;009;
26720;PMS1003;15950;51.112;6.966;2022-12-18T13:25:58;011;008;
26720;PMS1003;15950;51.112;6.966;2022-12-18T13:28:57;008;007;
26720;PMS1003;15950;51.112;6.966;2022-12-18T13:31:57;011;008;
26720;PMS1003;15950;51.112;6.966;2022-12-18T13:37:56;010;007;
26720;PMS1003;15950;51.112;6.966;2022-12-18T13:40:57;014;010;
26720;PMS1003;15950;51.112;6.966;2022-12-18T13:44:10;014;010;
26720;PMS1003;15950;51.112;6.966;2022-12-18T13:46:57;026;018;
26720;PMS1003;15950;51.112;6.966;2022-12-18T13:49:56;013;009;
26720;PMS1003;15950;51.112;6.966;2022-12-18T13:52:56;015;013;
26720;PMS1003;15950;51.112;6.966;2022-12-18T13:55:56;021;015;
26720;PMS1003;15950;51.112;6.966;2022-12-18T14:01:57;018;014;
26720;PMS1003;15950;51.112;6.966;2022-12-18T14:04:56;013;009;
26720;PMS1003;15950;51.112;6.966;2022-12-18T14:10:56;010;007;
26720;PMS1003;15950;51.112;6.966;2022-12-18T14:13:56;017;012;
26720;PMS1003;15950;51.112;6.966;2022-12-18T14:16:56;013;009;
26720;PMS1003;15950;51.112;6.966;2022-12-18T14:19:56;021;016;
26720;PMS1003;15950;51.112;6.966;2022-12-18T14:22:57;020;014;
26720;PMS1003;15950;51.112;6.966;2022-12-18T14:25:57;012;009;
26720;PMS1003;15950;51.112;6.966;2022-12-18T14:28:57;013;011;
26720;PMS1003;15950;51.112;6.966;2022-12-18T14:34:56;013;010;
26720;PMS1003;15950;51.112;6.966;2022-12-18T14:41:02;018;017;
26720;PMS1003;15950;51.112;6.966;2022-12-18T14:44:04;010;008;
26720;PMS1003;15950;51.112;6.966;2022-12-18T14:46:56;016;011;
26720;PMS1003;15950;51.112;6.966;2022-12-18T14:49:56;018;013;
26720;PMS1003;15950;51.112;6.966;2022-12-18T14:52:56;016;011;
26720;PMS1003;15950;51.112;6.966;2022-12-18T14:55:56;021;015;
26720;PMS1003;15950;51.112;6.966;2022-12-18T14:59:00;015;011;
26720;PMS1003;15950;51.112;6.966;2022-12-18T15:07:59;006;004;
26720;PMS1003;15950;51.112;6.966;2022-12-18T15:10:56;007;005;
26720;PMS1003;15950;51.112;6.966;2022-12-18T15:13:57;016;013;
26720;PMS1003;15950;51.112;6.966;2022-12-18T15:16:57;014;011;
26720;PMS1003;15950;51.112;6.966;2022-12-18T15:20:00;018;014;
26720;PMS1003;15950;51.112;6.966;2022-12-18T15:22:56;014;010;
26720;PMS1003;15950;51.112;6.966;2022-12-18T15:26:00;017;013;
26720;PMS1003;15950;51.112;6.966;2022-12-18T15:28:57;016;011;
26720;PMS1003;15950;51.112;6.966;2022-12-18T15:32:00;014;010;
26720;PMS1003;15950;51.112;6.966;2022-12-18T15:37:56;019;015;
26720;PMS1003;15950;51.112;6.966;2022-12-18T15:40:57;019;013;
26720;PMS1003;15950;51.112;6.966;2022-12-18T15:43:56;019;014;
26720;PMS1003;15950;51.112;6.966;2022-12-18T15:46:57;021;015;
26720;PMS1003;15950;51.112;6.966;2022-12-18T15:49:56;016;011;
26720;PMS1003;15950;51.112;6.966;2022-12-18T15:52:56;029;022;
26720;PMS1003;15950;51.112;6.966;2022-12-18T15:55:57;026;018;
26720;PMS1003;15950;51.112;6.966;2022-12-18T15:58:56;020;015;
26720;PMS1003;15950;51.112;6.966;2022-12-18T16:01:56;017;013;
26720;PMS1003;15950;51.112;6.966;2022-12-18T16:04:56;024;020;
26720;PMS1003;15950;51.112;6.966;2022-12-18T16:07:56;016;011;
26720;PMS1003;15950;51.112;6.966;2022-12-18T16:10:57;018;014;
26720;PMS1003;15950;51.112;6.966;2022-12-18T16:13:56;019;015;
26720;PMS1003;15950;51.112;6.966;2022-12-18T16:17:00;020;016;
26720;PMS1003;15950;51.112;6.966;2022-12-18T16:19:56;017;014;
26720;PMS1003;15950;51.112;6.966;2022-12-18T16:22:56;026;018;
26720;PMS1003;15950;51.112;6.966;2022-12-18T16:25:56;023;016;
26720;PMS1003;15950;51.112;6.966;2022-12-18T16:28:56;020;015;
26720;PMS1003;15950;51.112;6.966;2022-12-18T16:31:57;018;013;
26720;PMS1003;15950;51.112;6.966;2022-12-18T16:34:59;028;022;
26720;PMS1003;15950;51.112;6.966;2022-12-18T16:37:56;014;010;
26720;PMS1003;15950;51.112;6.966;2022-12-18T16:40:56;019;013;
26720;PMS1003;15950;51.112;6.966;2022-12-18T16:43:56;021;018;
26720;PMS1003;15950;51.112;6.966;2022-12-18T16:46:56;023;016;
26720;PMS1003;15950;51.112;6.966;2022-12-18T16:49:56;028;020;
26720;PMS1003;15950;51.112;6.966;2022-12-18T16:52:56;022;017;
26720;PMS1003;15950;51.112;6.966;2022-12-18T16:55:56;021;018;
26720;PMS1003;15950;51.112;6.966;2022-12-18T16:58:57;026;018;
26720;PMS1003;15950;51.112;6.966;2022-12-18T17:01:56;022;017;
26720;PMS1003;15950;51.112;6.966;2022-12-18T17:04:57;026;020;
26720;PMS1003;15950;51.112;6.966;2022-12-18T17:07:56;024;021;
26720;PMS1003;15950;51.112;6.966;2022-12-18T17:11:02;025;019;
26720;PMS1003;15950;51.112;6.966;2022-12-18T17:13:56;019;013;
26720;PMS1003;15950;51.112;6.966;2022-12-18T17:16:56;019;013;
26720;PMS1003;15950;51.112;6.966;2022-12-18T17:19:56;014;010;
26720;PMS1003;15950;51.112;6.966;2022-12-18T17:22:56;026;018;
26720;PMS1003;15950;51.112;6.966;2022-12-18T17:25:57;025;018;
26720;PMS1003;15950;51.112;6.966;2022-12-18T17:28:57;021;015;
26720;PMS1003;15950;51.112;6.966;2022-12-18T17:31:56;022;017;
26720;PMS1003;15950;51.112;6.966;2022-12-18T17:34:56;020;016;
26720;PMS1003;15950;51.112;6.966;2022-12-18T17:37:56;024;017;
26720;PMS1003;15950;51.112;6.966;2022-12-18T17:41:00;019;013;
26720;PMS1003;15950;51.112;6.966;2022-12-18T17:44:00;033;023;
26720;PMS1003;15950;51.112;6.966;2022-12-18T17:46:56;016;012;
26720;PMS1003;15950;51.112;6.966;2022-12-18T17:49:56;024;017;
26720;PMS1003;15950;51.112;6.966;2022-12-18T17:52:56;020;014;
26720;PMS1003;15950;51.112;6.966;2022-12-18T17:55:57;023;019;
26720;PMS1003;15950;51.112;6.966;2022-12-18T17:58:56;019;014;
26720;PMS1003;15950;51.112;6.966;2022-12-18T18:01:56;027;019;
26720;PMS1003;15950;51.112;6.966;2022-12-18T18:04:56;024;018;
26720;PMS1003;15950;51.112;6.966;2022-12-18T18:07:56;024;017;
26720;PMS1003;15950;51.112;6.966;2022-12-18T18:10:56;021;015;
26720;PMS1003;15950;51.112;6.966;2022-12-18T18:13:56;019;013;
26720;PMS1003;15950;51.112;6.966;2022-12-18T18:16:56;020;014;
26720;PMS1003;15950;51.112;6.966;2022-12-18T18:19:56;027;019;
26720;PMS1003;15950;51.112;6.966;2022-12-18T18:22:56;020;015;
26720;PMS1003;15950;51.112;6.966;2022-12-18T18:26:06;028;020;
26720;PMS1003;15950;51.112;6.966;2022-12-18T18:28:57;021;015;
26720;PMS1003;15950;51.112;6.966;2022-12-18T18:31:56;033;023;
26720;PMS1003;15950;51.112;6.966;2022-12-18T18:34:56;023;016;
26720;PMS1003;15950;51.112;6.966;2022-12-18T18:37:56;023;018;
26720;PMS1003;15950;51.112;6.966;2022-12-18T18:40:57;031;022;
26720;PMS1003;15950;51.112;6.966;2022-12-18T18:43:57;024;020;
26720;PMS1003;15950;51.112;6.966;2022-12-18T18:46:57;025;020;
26720;PMS1003;15950;51.112;6.966;2022-12-18T18:49:56;039;028;
26720;PMS1003;15950;51.112;6.966;2022-12-18T18:52:56;027;019;
26720;PMS1003;15950;51.112;6.966;2022-12-18T18:55:57;026;019;
26720;PMS1003;15950;51.112;6.966;2022-12-18T18:58:56;030;021;
26720;PMS1003;15950;51.112;6.966;2022-12-18T19:01:56;034;028;
26720;PMS1003;15950;51.112;6.966;2022-12-18T19:04:56;027;019;
26720;PMS1003;15950;51.112;6.966;2022-12-18T19:07:56;018;015;
26720;PMS1003;15950;51.112;6.966;2022-12-18T19:10:57;033;023;
26720;PMS1003;15950;51.112;6.966;2022-12-18T19:13:57;026;018;
26720;PMS1003;15950;51.112;6.966;2022-12-18T19:16:56;022;018;
26720;PMS1003;15950;51.112;6.966;2022-12-18T19:19:56;028;020;
26720;PMS1003;15950;51.112;6.966;2022-12-18T19:22:56;026;019;
26720;PMS1003;15950;51.112;6.966;2022-12-18T19:26:00;028;020;
26720;PMS1003;15950;51.112;6.966;2022-12-18T19:29:00;017;012;
26720;PMS1003;15950;51.112;6.966;2022-12-18T19:31:56;030;021;
26720;PMS1003;15950;51.112;6.966;2022-12-18T19:34:56;012;008;
26720;PMS1003;15950;51.112;6.966;2022-12-18T19:37:56;027;021;
26720;PMS1003;15950;51.112;6.966;2022-12-18T19:40:56;024;017;
26720;PMS1003;15950;51.112;6.966;2022-12-18T19:43:56;027;021;
26720;PMS1003;15950;51.112;6.966;2022-12-18T19:46:56;027;019;
26720;PMS1003;15950;51.112;6.966;2022-12-18T19:49:56;028;020;
26720;PMS1003;15950;51.112;6.966;2022-12-18T19:52:56;028;020;
26720;PMS1003;15950;51.112;6.966;2022-12-18T19:55:56;014;010;
26720;PMS1003;15950;51.112;6.966;2022-12-18T19:58:57;026;018;
26720;PMS1003;15950;51.112;6.966;2022-12-18T20:01:56;023;016;
26720;PMS1003;15950;51.112;6.966;2022-12-18T20:04:56;021;015;
26720;PMS1003;15950;51.112;6.966;2022-12-18T20:07:56;026;019;
26720;PMS1003;15950;51.112;6.966;2022-12-18T20:10:56;023;017;
26720;PMS1003;15950;51.112;6.966;2022-12-18T20:13:56;026;021;
26720;PMS1003;15950;51.112;6.966;2022-12-18T20:16:56;029;022;
26720;PMS1003;15950;51.112;6.966;2022-12-18T20:19:56;023;016;
26720;PMS1003;15950;51.112;6.966;2022-12-18T20:22:56;030;021;
26720;PMS1003;15950;51.112;6.966;2022-12-18T20:25:56;019;013;
26720;PMS1003;15950;51.112;6.966;2022-12-18T20:28:56;023;016;
26720;PMS1003;15950;51.112;6.966;2022-12-18T20:31:56;024;018;
26720;PMS1003;15950;51.112;6.966;2022-12-18T20:34:56;027;022;
26720;PMS1003;15950;51.112;6.966;2022-12-18T20:37:56;026;018;
26720;PMS1003;15950;51.112;6.966;2022-12-18T20:40:56;030;021;
26720;PMS1003;15950;51.112;6.966;2022-12-18T20:43:56;028;020;
26720;PMS1003;15950;51.112;6.966;2022-12-18T20:46:56;023;019;
26720;PMS1003;15950;51.112;6.966;2022-12-18T20:49:56;026;020;
26720;PMS1003;15950;51.112;6.966;2022-12-18T20:52:56;028;021;
26720;PMS1003;15950;51.112;6.966;2022-12-18T20:55:56;024;017;
26720;PMS1003;15950;51.112;6.966;2022-12-18T20:58:57;029;022;
26720;PMS1003;15950;51.112;6.966;2022-12-18T21:01:56;028;020;
26720;PMS1003;15950;51.112;6.966;2022-12-18T21:04:56;028;020;
26720;PMS1003;15950;51.112;6.966;2022-12-18T21:07:56;031;022;
26720;PMS1003;15950;51.112;6.966;2022-12-18T21:11:10;030;021;
26720;PMS1003;15950;51.112;6.966;2022-12-18T21:13:56;019;013;
26720;PMS1003;15950;51.112;6.966;2022-12-18T21:16:56;023;016;
26720;PMS1003;15950;51.112;6.966;2022-12-18T21:19:56;026;018;
26720;PMS1003;15950;51.112;6.966;2022-12-18T21:22:56;018;014;
26720;PMS1003;15950;51.112;6.966;2022-12-18T21:26:13;031;024;
26720;PMS1003;15950;51.112;6.966;2022-12-18T21:28:57;033;023;
26720;PMS1003;15950;51.112;6.966;2022-12-18T21:31:56;020;014;
26720;PMS1003;15950;51.112;6.966;2022-12-18T21:34:56;026;019;
26720;PMS1003;15950;51.112;6.966;2022-12-18T21:37:56;026;019;
26720;PMS1003;15950;51.112;6.966;2022-12-18T21:40:56;025;019;
26720;PMS1003;15950;51.112;6.966;2022-12-18T21:43:56;022;017;
26720;PMS1003;15950;51.112;6.966;2022-12-18T21:46:56;030;024;
26720;PMS1003;15950;51.112;6.966;2022-12-18T21:49:56;026;018;
26720;PMS1003;15950;51.112;6.966;2022-12-18T21:52:56;015;012;
26720;PMS1003;15950;51.112;6.966;2022-12-18T21:55:57;025;020;
26720;PMS1003;15950;51.112;6.966;2022-12-18T21:58:56;027;019;
26720;PMS1003;15950;51.112;6.966;2022-12-18T22:01:57;021;015;
26720;PMS1003;15950;51.112;6.966;2022-12-18T22:04:56;026;020;
26720;PMS1003;15950;51.112;6.966;2022-12-18T22:07:56;026;018;
26720;PMS1003;15950;51.112;6.966;2022-12-18T22:10:56;025;019;
26720;PMS1003;15950;51.112;6.966;2022-12-18T22:13:56;020;017;
26720;PMS1003;15950;51.112;6.966;2022-12-18T22:16:56;026;018;
26720;PMS1003;15950;51.112;6.966;2022-12-18T22:19:56;031;022;